Time;durP1;ratioP1;P1;durP2;ratioP2;P2;SDS_P1;SDS_P2;PMS_P1;PMS_P2;Temp;Humidity;BMP_temperature;BMP_pressure;BME280_temperature;BME280_humidity;BME280_pressure;Samples;Min_cycle;Max_cycle;Signal;HPM_P1;HPM_P2
2021/05/28 00:00:58;;;;;;;2.47;2.33;;;11.30;99.90;;;;;;5096830;28;20264;-49
2021/05/28 00:03:24;;;;;;;2.83;2.63;;;11.40;99.90;;;;;;5097229;28;20216;-49
2021/05/28 00:05:49;;;;;;;3.00;2.70;;;11.40;99.90;;;;;;5096829;28;20541;-51
2021/05/28 00:08:15;;;;;;;2.80;2.60;;;11.50;99.90;;;;;;5096530;28;20285;-59
2021/05/28 00:10:40;;;;;;;2.47;2.27;;;11.40;99.90;;;;;;5096819;28;20205;-52
2021/05/28 00:13:06;;;;;;;2.30;2.10;;;11.40;99.90;;;;;;5096507;28;20269;-52
2021/05/28 00:15:33;;;;;;;3.50;2.70;;;11.50;99.90;;;;;;5097391;28;20205;-55
2021/05/28 00:17:59;;;;;;;2.53;2.33;;;11.60;99.90;;;;;;5096664;28;20209;-50
2021/05/28 00:20:24;;;;;;;2.50;2.30;;;11.60;99.90;;;;;;5096492;28;20178;-56
2021/05/28 00:22:50;;;;;;;4.93;2.63;;;11.50;99.90;;;;;;5096972;28;20182;-55
2021/05/28 00:25:15;;;;;;;2.50;2.30;;;11.40;99.90;;;;;;5097199;28;20174;-58
2021/05/28 00:27:44;;;;;;;2.83;2.53;;;11.40;99.90;;;;;;5096709;28;20189;-56
2021/05/28 00:30:11;;;;;;;2.90;2.60;;;11.50;99.90;;;;;;5096596;28;20227;-54
2021/05/28 00:32:37;;;;;;;2.67;2.47;;;11.50;99.90;;;;;;5096606;28;20184;-52
2021/05/28 00:35:05;;;;;;;2.73;2.53;;;11.40;99.90;;;;;;5096819;28;20253;-50
2021/05/28 00:37:30;;;;;;;2.80;2.50;;;11.40;99.90;;;;;;5095749;28;20201;-51
2021/05/28 00:39:56;;;;;;;4.37;2.33;;;11.40;99.90;;;;;;5096290;28;20186;-50
2021/05/28 00:42:21;;;;;;;2.33;2.20;;;11.40;99.90;;;;;;5096484;28;20551;-54
2021/05/28 00:44:47;;;;;;;3.80;2.43;;;11.30;99.90;;;;;;5096797;28;20513;-51
2021/05/28 00:47:13;;;;;;;2.87;2.67;;;11.20;99.90;;;;;;5096174;28;20591;-49
2021/05/28 00:49:38;;;;;;;3.67;2.30;;;11.10;99.90;;;;;;5095959;28;20648;-50
2021/05/28 00:52:04;;;;;;;3.70;2.50;;;11.10;99.90;;;;;;5095627;28;20233;-50
2021/05/28 00:54:30;;;;;;;3.40;2.27;;;11.10;99.90;;;;;;5096379;28;20291;-56
2021/05/28 00:56:56;;;;;;;2.80;2.60;;;11.10;99.90;;;;;;5096249;28;20661;-57
2021/05/28 00:59:24;;;;;;;3.93;2.57;;;11.20;99.90;;;;;;5095786;28;20177;-53
2021/05/28 01:01:50;;;;;;;2.53;2.20;;;11.20;99.90;;;;;;5095913;28;20181;-55
2021/05/28 01:04:16;;;;;;;2.97;2.73;;;11.30;99.90;;;;;;5096030;28;20196;-50
2021/05/28 01:06:41;;;;;;;3.97;2.90;;;11.40;99.90;;;;;;5095581;28;20581;-54
2021/05/28 01:09:08;;;;;;;3.20;3.00;;;11.50;99.90;;;;;;5095235;28;20186;-54
2021/05/28 01:11:35;;;;;;;3.00;2.70;;;11.50;99.90;;;;;;5095831;28;20197;-53
2021/05/28 01:14:01;;;;;;;2.53;2.33;;;11.60;99.90;;;;;;5095695;28;20182;-57
2021/05/28 01:16:27;;;;;;;2.70;2.50;;;11.60;99.90;;;;;;5095755;28;20192;-49
2021/05/28 01:18:53;;;;;;;2.60;2.40;;;11.60;99.90;;;;;;5095969;28;20563;-53
2021/05/28 01:21:20;;;;;;;2.70;2.33;;;11.70;99.90;;;;;;5095208;28;20550;-50
2021/05/28 01:23:46;;;;;;;2.83;2.33;;;11.80;99.90;;;;;;5096001;28;20182;-52
2021/05/28 01:26:12;;;;;;;2.73;2.53;;;11.70;99.90;;;;;;5095150;28;20590;-51
2021/05/28 01:28:37;;;;;;;3.27;2.47;;;11.70;99.90;;;;;;5095460;28;20237;-50
2021/05/28 01:31:03;;;;;;;2.83;2.43;;;11.80;99.90;;;;;;5095135;28;20209;-51
2021/05/28 01:33:29;;;;;;;2.80;2.60;;;11.80;99.90;;;;;;5095214;28;20165;-59
2021/05/28 01:35:58;;;;;;;2.70;2.50;;;11.80;99.90;;;;;;5078096;28;20530;-58
2021/05/28 01:38:24;;;;;;;2.73;2.53;;;11.80;99.90;;;;;;5095176;28;20632;-49
2021/05/28 01:40:50;;;;;;;2.80;2.60;;;11.90;99.90;;;;;;5095650;28;20664;-51
2021/05/28 01:43:15;;;;;;;2.83;2.60;;;11.90;99.90;;;;;;5094783;28;20174;-56
2021/05/28 01:45:41;;;;;;;3.03;2.73;;;11.90;99.90;;;;;;5094746;28;20204;-50
2021/05/28 01:48:07;;;;;;;2.70;2.50;;;11.80;99.90;;;;;;5095522;28;20664;-49
2021/05/28 01:50:52;;;;;;;3.10;2.80;;;11.80;99.90;;;;;;5095350;28;20196;-50
2021/05/28 01:53:22;;;;;;;3.10;2.80;;;11.90;99.90;;;;;;5095385;28;20182;-57
2021/05/28 01:55:48;;;;;;;2.67;2.47;;;12.00;99.90;;;;;;5094774;28;20503;-51
2021/05/28 01:58:16;;;;;;;2.70;2.50;;;12.10;99.90;;;;;;5095197;28;20198;-49
2021/05/28 02:00:44;;;;;;;3.13;2.80;;;12.10;99.90;;;;;;5094969;28;20180;-54
2021/05/28 02:03:10;;;;;;;3.27;2.80;;;12.20;99.90;;;;;;5095156;28;20219;-53
2021/05/28 02:05:36;;;;;;;3.20;2.90;;;12.20;99.90;;;;;;5094517;28;20178;-55
2021/05/28 02:08:03;;;;;;;3.10;2.73;;;12.20;99.90;;;;;;5094919;28;20215;-57
2021/05/28 02:10:30;;;;;;;3.30;3.00;;;12.20;99.90;;;;;;5094658;28;20558;-51
2021/05/28 02:12:59;;;;;;;3.37;3.00;;;12.20;99.90;;;;;;5094641;28;20230;-51
2021/05/28 02:15:26;;;;;;;3.37;3.07;;;12.20;99.90;;;;;;5094702;28;20188;-54
2021/05/28 02:17:53;;;;;;;3.07;2.87;;;12.10;99.90;;;;;;5094883;28;20629;-50
2021/05/28 02:20:19;;;;;;;3.33;3.03;;;12.10;99.90;;;;;;5093520;28;20178;-57
2021/05/28 02:22:45;;;;;;;2.70;2.50;;;12.20;99.90;;;;;;5093880;28;20181;-49
2021/05/28 02:25:11;;;;;;;2.67;2.47;;;12.20;99.90;;;;;;5094111;28;20185;-57
2021/05/28 02:27:36;;;;;;;3.17;2.97;;;12.20;99.90;;;;;;5094611;28;20189;-52
2021/05/28 02:30:04;;;;;;;3.73;3.00;;;12.20;99.90;;;;;;5094310;28;20624;-50
2021/05/28 02:32:29;;;;;;;3.33;3.03;;;12.20;99.90;;;;;;5094010;28;20511;-49
2021/05/28 02:34:55;;;;;;;3.57;3.27;;;12.10;99.90;;;;;;5094312;28;20618;-50
2021/05/28 02:37:21;;;;;;;3.17;2.90;;;12.10;99.90;;;;;;5094135;28;20201;-51
2021/05/28 02:39:46;;;;;;;3.27;2.97;;;12.10;99.90;;;;;;5093974;28;20601;-55
2021/05/28 02:42:12;;;;;;;3.07;2.73;;;12.10;99.90;;;;;;5094142;28;20652;-50
2021/05/28 02:44:38;;;;;;;3.10;2.90;;;12.10;99.90;;;;;;5094036;28;20186;-55
2021/05/28 02:47:04;;;;;;;3.27;2.90;;;12.20;99.90;;;;;;5094049;28;20280;-50
2021/05/28 02:49:30;;;;;;;3.23;3.03;;;12.30;99.90;;;;;;5094356;28;20208;-49
2021/05/28 02:51:55;;;;;;;3.53;3.23;;;12.30;99.90;;;;;;5094174;28;20197;-54
2021/05/28 02:54:22;;;;;;;3.80;3.40;;;12.20;99.90;;;;;;5094417;28;20166;-55
2021/05/28 02:56:48;;;;;;;3.83;3.43;;;12.20;99.90;;;;;;5094101;28;20194;-59
2021/05/28 02:59:13;;;;;;;3.60;3.30;;;12.20;99.90;;;;;;5093945;28;20244;-56
2021/05/28 03:01:39;;;;;;;4.30;3.90;;;12.20;99.90;;;;;;5094256;28;20254;-54
2021/05/28 03:04:04;;;;;;;4.10;3.50;;;12.20;99.90;;;;;;5093851;28;20521;-51
2021/05/28 03:06:30;;;;;;;3.67;3.37;;;12.00;99.90;;;;;;5093585;28;20193;-53
2021/05/28 03:08:56;;;;;;;4.23;3.83;;;11.90;99.90;;;;;;5093930;28;20181;-52
2021/05/28 03:11:22;;;;;;;5.40;4.20;;;11.90;99.90;;;;;;5093570;28;20201;-49
2021/05/28 03:13:47;;;;;;;4.20;3.90;;;11.80;99.90;;;;;;5094298;28;20227;-51
2021/05/28 03:16:13;;;;;;;6.07;4.10;;;11.70;99.90;;;;;;5093765;28;20620;-54
2021/05/28 03:18:52;;;;;;;3.90;3.50;;;11.80;99.90;;;;;;5094366;28;20170;-53
2021/05/28 03:23:47;;;;;;;4.80;3.43;;;11.90;99.90;;;;;;5093932;28;20180;-51
2021/05/28 03:26:13;;;;;;;4.97;4.47;;;12.00;99.90;;;;;;5093357;28;20730;-51
2021/05/28 03:28:39;;;;;;;4.50;4.10;;;12.00;99.90;;;;;;5094219;28;20169;-50
2021/05/28 03:31:04;;;;;;;4.60;4.20;;;12.00;99.90;;;;;;5093203;28;20193;-52
2021/05/28 03:33:30;;;;;;;4.17;3.80;;;12.00;99.90;;;;;;5097438;28;20290;-52
2021/05/28 03:35:55;;;;;;;4.80;4.40;;;12.10;99.90;;;;;;5097292;28;20174;-50
2021/05/28 03:38:21;;;;;;;5.17;4.60;;;12.10;99.90;;;;;;5097809;28;20192;-50
2021/05/28 03:40:47;;;;;;;5.47;4.20;;;12.10;99.90;;;;;;5097570;28;20517;-53
2021/05/28 03:43:12;;;;;;;4.93;4.53;;;12.10;99.90;;;;;;5097349;28;20252;-54
2021/05/28 03:45:38;;;;;;;5.87;4.50;;;12.20;99.90;;;;;;5097242;28;20657;-53
2021/05/28 03:48:04;;;;;;;4.70;4.30;;;12.10;99.90;;;;;;5097153;28;20201;-49
2021/05/28 03:50:29;;;;;;;5.60;5.00;;;12.00;99.90;;;;;;5096935;28;20225;-51
2021/05/28 03:52:55;;;;;;;5.90;5.23;;;11.90;99.90;;;;;;5097130;28;20672;-59
2021/05/28 03:55:20;;;;;;;5.30;4.53;;;11.80;99.90;;;;;;5097068;28;20242;-55
2021/05/28 03:57:46;;;;;;;5.27;4.17;;;11.70;99.90;;;;;;5097592;28;20239;-50
2021/05/28 04:00:12;;;;;;;4.20;3.80;;;11.70;99.90;;;;;;5096935;28;20511;-53
2021/05/28 04:02:37;;;;;;;4.30;3.90;;;11.70;99.90;;;;;;5096410;28;20178;-50
2021/05/28 04:05:03;;;;;;;4.87;4.37;;;11.90;99.90;;;;;;5096864;28;20177;-51
2021/05/28 04:07:29;;;;;;;4.57;4.07;;;11.90;99.90;;;;;;5096817;28;20557;-51
2021/05/28 04:09:55;;;;;;;4.70;4.30;;;12.00;99.90;;;;;;5095509;28;20177;-53
2021/05/28 04:12:20;;;;;;;4.17;3.77;;;12.10;99.90;;;;;;5096834;28;20549;-50
2021/05/28 04:14:46;;;;;;;4.77;4.17;;;12.10;99.90;;;;;;5096953;28;20274;-50
2021/05/28 04:17:11;;;;;;;4.67;4.27;;;12.10;99.90;;;;;;5096176;28;20198;-53
2021/05/28 04:19:37;;;;;;;5.03;4.53;;;12.10;99.90;;;;;;5097079;28;20174;-49
2021/05/28 04:22:02;;;;;;;4.23;3.77;;;12.00;99.90;;;;;;5096488;28;20545;-59
2021/05/28 04:24:28;;;;;;;4.60;4.20;;;12.10;99.90;;;;;;5096784;28;20173;-51
2021/05/28 04:26:53;;;;;;;4.50;4.10;;;12.20;99.90;;;;;;5096400;28;20232;-55
2021/05/28 04:29:20;;;;;;;4.50;4.10;;;12.20;99.90;;;;;;5096627;28;20234;-56
2021/05/28 04:31:46;;;;;;;4.30;3.40;;;12.20;99.90;;;;;;5096600;28;20201;-49
2021/05/28 04:34:11;;;;;;;4.00;3.60;;;12.20;99.90;;;;;;5096125;28;20182;-52
2021/05/28 04:36:37;;;;;;;3.97;3.67;;;12.30;99.90;;;;;;5096013;28;20280;-49
2021/05/28 04:39:04;;;;;;;3.80;3.50;;;12.40;99.90;;;;;;5096050;28;20190;-50
2021/05/28 04:41:30;;;;;;;3.97;3.67;;;12.40;99.90;;;;;;5096130;28;20177;-53
2021/05/28 04:43:56;;;;;;;5.80;3.73;;;12.40;99.90;;;;;;5096007;28;20199;-52
2021/05/28 04:46:22;;;;;;;4.50;4.10;;;12.50;99.90;;;;;;5096148;28;20276;-56
2021/05/28 04:48:47;;;;;;;4.00;3.60;;;12.40;99.90;;;;;;5096345;28;20610;-55
2021/05/28 04:51:14;;;;;;;5.47;3.57;;;12.30;99.90;;;;;;5095730;28;20250;-56
2021/05/28 04:53:40;;;;;;;4.27;3.70;;;12.30;99.90;;;;;;5095983;28;20186;-50
2021/05/28 04:56:05;;;;;;;4.03;3.73;;;12.40;99.90;;;;;;5095376;28;20185;-53
2021/05/28 04:58:31;;;;;;;4.30;3.93;;;12.30;99.90;;;;;;5093731;28;20695;-58
2021/05/28 05:00:56;;;;;;;3.77;3.43;;;12.30;99.90;;;;;;5085992;28;20186;-53
2021/05/28 05:03:22;;;;;;;4.70;3.80;;;12.20;99.90;;;;;;5076098;28;20181;-53
2021/05/28 05:05:47;;;;;;;4.30;3.90;;;12.20;99.90;;;;;;5093703;28;20177;-48
2021/05/28 05:08:13;;;;;;;4.17;3.77;;;12.20;99.90;;;;;;5088003;28;20222;-51
2021/05/28 05:10:38;;;;;;;4.60;4.20;;;12.30;99.90;;;;;;5095496;28;20318;-58
2021/05/28 05:13:13;;;;;;;4.90;4.40;;;12.30;99.90;;;;;;5082345;28;20206;-58
2021/05/28 05:15:39;;;;;;;4.20;3.63;;;12.30;99.90;;;;;;5085265;28;20625;-56
2021/05/28 05:18:06;;;;;;;4.37;3.97;;;12.30;99.90;;;;;;5090516;28;20202;-52
2021/05/28 05:20:32;;;;;;;4.10;3.80;;;12.40;99.90;;;;;;5095414;28;20196;-52
2021/05/28 05:22:58;;;;;;;4.43;4.03;;;12.50;99.90;;;;;;5093802;28;20265;-56
2021/05/28 05:25:23;;;;;;;4.17;3.87;;;12.70;99.90;;;;;;5089649;28;20265;-53
2021/05/28 05:27:49;;;;;;;4.33;3.93;;;12.70;99.90;;;;;;5091955;28;20284;-53
2021/05/28 05:30:16;;;;;;;4.87;4.33;;;12.70;99.90;;;;;;5095085;28;20203;-55
2021/05/28 05:32:41;;;;;;;5.00;4.20;;;12.70;99.90;;;;;;5091712;28;20205;-53
2021/05/28 05:35:07;;;;;;;4.67;4.27;;;12.70;99.90;;;;;;5095623;28;20502;-50
2021/05/28 05:37:33;;;;;;;5.03;4.50;;;12.70;99.90;;;;;;5093922;28;20209;-50
2021/05/28 05:39:59;;;;;;;4.60;4.20;;;12.80;99.90;;;;;;5096018;28;20253;-50
2021/05/28 05:42:25;;;;;;;4.50;4.10;;;12.70;99.90;;;;;;5094157;28;20441;-53
2021/05/28 05:44:50;;;;;;;6.20;4.30;;;12.80;99.90;;;;;;5092878;28;20276;-49
2021/05/28 05:47:16;;;;;;;7.27;4.07;;;12.80;99.90;;;;;;5092146;28;20202;-55
2021/05/28 05:49:41;;;;;;;4.70;4.10;;;13.00;99.90;;;;;;5092213;28;20235;-55
2021/05/28 05:52:07;;;;;;;4.57;4.17;;;13.20;99.90;;;;;;5092335;28;20209;-50
2021/05/28 05:54:33;;;;;;;4.70;4.30;;;13.20;99.90;;;;;;5092184;28;20178;-54
2021/05/28 05:56:58;;;;;;;4.50;4.10;;;13.20;99.90;;;;;;5092525;28;20324;-51
2021/05/28 05:59:24;;;;;;;4.50;4.10;;;13.20;99.90;;;;;;5095588;28;20174;-57
2021/05/28 06:01:50;;;;;;;4.87;4.43;;;13.20;99.90;;;;;;5094647;28;20211;-50
2021/05/28 06:04:16;;;;;;;5.83;4.50;;;13.30;99.90;;;;;;5095063;28;20264;-54
2021/05/28 06:06:41;;;;;;;4.10;3.80;;;13.30;99.90;;;;;;5093114;28;20213;-53
2021/05/28 06:09:07;;;;;;;4.90;4.30;;;13.50;99.90;;;;;;5095038;28;20227;-48
2021/05/28 06:11:33;;;;;;;4.53;4.13;;;13.40;99.90;;;;;;5093775;28;20214;-52
2021/05/28 06:13:58;;;;;;;4.63;3.63;;;13.40;99.90;;;;;;5094550;28;20177;-56
2021/05/28 06:16:24;;;;;;;4.30;3.90;;;13.40;99.90;;;;;;5091068;28;20611;-55
2021/05/28 06:18:49;;;;;;;4.43;3.80;;;13.70;99.90;;;;;;5091959;28;20871;-58
2021/05/28 06:21:15;;;;;;;4.70;4.23;;;13.90;99.90;;;;;;5092214;28;20171;-57
2021/05/28 06:23:40;;;;;;;4.13;3.70;;;13.90;99.90;;;;;;5087303;28;20631;-54
2021/05/28 06:26:06;;;;;;;4.63;4.17;;;13.90;99.90;;;;;;5082645;28;20183;-53
2021/05/28 06:28:31;;;;;;;4.20;3.80;;;13.80;99.90;;;;;;5071937;28;20173;-52
2021/05/28 06:30:57;;;;;;;4.30;3.90;;;13.80;99.90;;;;;;5073211;28;20198;-55
2021/05/28 06:33:23;;;;;;;3.97;3.67;;;13.90;99.90;;;;;;5074517;28;20614;-54
2021/05/28 06:35:48;;;;;;;5.93;3.63;;;13.80;99.90;;;;;;5074247;28;20172;-49
2021/05/28 06:38:14;;;;;;;3.97;3.67;;;14.00;99.90;;;;;;5072215;28;20223;-49
2021/05/28 06:40:39;;;;;;;4.00;3.70;;;13.60;99.90;;;;;;5074318;28;20184;-58
2021/05/28 06:43:06;;;;;;;4.07;3.77;;;13.70;99.90;;;;;;5084172;28;20173;-52
2021/05/28 06:45:34;;;;;;;4.27;3.87;;;13.90;99.90;;;;;;5093866;28;20624;-49
2021/05/28 06:48:00;;;;;;;4.23;3.83;;;14.00;99.90;;;;;;5094479;28;20207;-49
2021/05/28 06:50:30;;;;;;;4.70;4.30;;;14.00;99.90;;;;;;5083393;28;20212;-52
2021/05/28 06:52:56;;;;;;;4.50;4.10;;;13.90;99.90;;;;;;5073490;28;20644;-54
2021/05/28 06:55:22;;;;;;;4.57;4.17;;;13.90;99.90;;;;;;5077138;28;20192;-58
2021/05/28 06:57:47;;;;;;;6.63;4.70;;;14.00;99.90;;;;;;5093812;28;20192;-57
2021/05/28 07:00:13;;;;;;;4.63;4.23;;;14.00;99.90;;;;;;5089910;28;20245;-52
2021/05/28 07:02:39;;;;;;;4.83;4.37;;;13.90;99.90;;;;;;5093658;28;20675;-61
2021/05/28 07:05:05;;;;;;;5.37;4.33;;;13.90;99.90;;;;;;5093792;28;20183;-55
2021/05/28 07:07:31;;;;;;;4.23;3.83;;;13.90;99.90;;;;;;5092944;28;20199;-60
2021/05/28 07:09:56;;;;;;;4.40;4.00;;;13.80;99.90;;;;;;5093781;28;20272;-57
2021/05/28 07:12:22;;;;;;;4.63;4.23;;;13.80;99.90;;;;;;5093676;28;20235;-62
2021/05/28 07:14:47;;;;;;;4.67;4.23;;;13.90;99.90;;;;;;5093650;28;20169;-61
2021/05/28 07:17:13;;;;;;;4.13;3.83;;;13.90;99.90;;;;;;5093574;28;20196;-50
2021/05/28 07:19:39;;;;;;;4.47;4.07;;;13.90;99.90;;;;;;5093574;28;20175;-60
2021/05/28 07:22:05;;;;;;;4.73;4.30;;;13.80;99.90;;;;;;5093330;28;20296;-54
2021/05/28 07:24:30;;;;;;;5.10;4.60;;;13.70;99.90;;;;;;5093837;28;20205;-52
2021/05/28 07:26:56;;;;;;;6.40;4.63;;;13.70;99.90;;;;;;5093598;28;20198;-53
2021/05/28 07:29:21;;;;;;;4.47;4.13;;;13.70;99.90;;;;;;5093707;28;20197;-59
2021/05/28 07:31:47;;;;;;;4.80;4.40;;;13.70;99.90;;;;;;5093429;28;20199;-55
2021/05/28 07:34:12;;;;;;;4.93;4.53;;;13.70;99.90;;;;;;5093741;28;20177;-56
2021/05/28 07:36:38;;;;;;;4.70;4.30;;;13.80;99.90;;;;;;5093223;28;20607;-57
2021/05/28 07:39:04;;;;;;;5.13;4.40;;;14.00;99.90;;;;;;5093352;28;20218;-60
2021/05/28 07:41:30;;;;;;;5.00;4.57;;;14.10;99.90;;;;;;5093229;28;20172;-61
2021/05/28 07:43:55;;;;;;;7.10;4.80;;;14.90;99.90;;;;;;5093616;28;20193;-51
2021/05/28 07:46:21;;;;;;;4.53;4.13;;;14.10;99.90;;;;;;5083972;28;20205;-54
2021/05/28 07:48:47;;;;;;;5.73;4.53;;;13.90;99.90;;;;;;5073173;28;20227;-50
2021/05/28 07:51:14;;;;;;;4.93;4.53;;;14.00;99.90;;;;;;5072787;28;20216;-53
2021/05/28 07:53:39;;;;;;;4.83;4.37;;;14.00;99.90;;;;;;5080561;28;20241;-53
2021/05/28 07:56:05;;;;;;;5.57;4.60;;;14.10;99.90;;;;;;5092780;28;20180;-51
2021/05/28 07:58:32;;;;;;;4.70;4.30;;;14.10;99.90;;;;;;5093376;28;20613;-51
2021/05/28 08:00:58;;;;;;;5.23;4.50;;;14.20;99.90;;;;;;5093022;28;20178;-59
2021/05/28 08:03:23;;;;;;;5.30;4.80;;;14.30;99.90;;;;;;5093235;28;20181;-55
2021/05/28 08:05:50;;;;;;;4.93;4.43;;;14.60;99.90;;;;;;5093192;28;20299;-56
2021/05/28 08:08:21;;;;;;;6.17;4.40;;;14.90;99.90;;;;;;5093697;28;20182;-54
2021/05/28 08:10:48;;;;;;;6.17;4.60;;;15.00;99.90;;;;;;5080901;28;20210;-53
2021/05/28 08:13:13;;;;;;;5.40;4.20;;;15.20;99.90;;;;;;5072954;28;20262;-58
2021/05/28 08:15:39;;;;;;;4.93;4.43;;;15.20;99.90;;;;;;5078642;28;20257;-56
2021/05/28 08:18:05;;;;;;;4.43;4.03;;;15.10;99.90;;;;;;5092931;28;20232;-54
2021/05/28 08:20:32;;;;;;;5.03;4.53;;;15.10;99.90;;;;;;5096439;28;20178;-51
2021/05/28 08:22:59;;;;;;;5.27;4.23;;;15.00;99.90;;;;;;5096444;28;20193;-54
2021/05/28 08:25:25;;;;;;;4.90;4.40;;;15.10;99.90;;;;;;5089301;28;20179;-53
2021/05/28 08:27:51;;;;;;;5.60;4.70;;;15.10;99.90;;;;;;5087569;28;20208;-53
2021/05/28 08:30:18;;;;;;;4.40;4.00;;;15.00;99.90;;;;;;5076912;28;20645;-53
2021/05/28 08:32:45;;;;;;;5.73;4.20;;;15.00;99.90;;;;;;5087502;28;20177;-59
2021/05/28 08:35:11;;;;;;;4.50;4.10;;;15.10;99.90;;;;;;5086618;28;20213;-53
2021/05/28 08:37:37;;;;;;;5.67;4.30;;;15.40;99.90;;;;;;5085214;28;20202;-59
2021/05/28 08:40:05;;;;;;;4.87;3.80;;;15.60;99.90;;;;;;5076367;28;20167;-62
2021/05/28 08:42:32;;;;;;;5.50;3.73;;;15.60;99.90;;;;;;5074901;28;20707;-61
2021/05/28 08:44:58;;;;;;;4.60;4.00;;;15.50;99.90;;;;;;5074119;28;20189;-54
2021/05/28 08:47:24;;;;;;;4.43;4.03;;;15.40;99.90;;;;;;5075944;28;20200;-59
2021/05/28 08:49:51;;;;;;;4.77;4.30;;;15.20;99.90;;;;;;5092792;28;20178;-60
2021/05/28 08:52:19;;;;;;;4.80;4.20;;;15.10;99.90;;;;;;5094983;28;20204;-60
2021/05/28 08:54:44;;;;;;;4.67;4.07;;;15.00;99.90;;;;;;5095901;28;20507;-58
2021/05/28 08:57:10;;;;;;;3.87;3.47;;;14.90;99.90;;;;;;5095432;28;20216;-58
2021/05/28 08:59:37;;;;;;;4.67;3.67;;;14.90;99.90;;;;;;5095238;28;20185;-54
2021/05/28 09:02:03;;;;;;;3.73;3.33;;;14.90;99.90;;;;;;5095600;28;20177;-54
2021/05/28 09:04:28;;;;;;;3.80;3.50;;;14.90;99.90;;;;;;5094127;28;20177;-51
2021/05/28 09:06:54;;;;;;;3.90;3.27;;;15.00;99.90;;;;;;5096504;28;20209;-52
2021/05/28 09:09:23;;;;;;;4.70;4.00;;;14.90;99.90;;;;;;5096284;28;20256;-53
2021/05/28 09:11:57;;;;;;;3.87;3.53;;;14.90;99.90;;;;;;5095741;28;20241;-61
2021/05/28 09:14:31;;;;;;;3.90;3.50;;;14.90;99.90;;;;;;5095684;28;20210;-62
2021/05/28 09:16:57;;;;;;;3.70;3.40;;;15.10;99.90;;;;;;5093599;28;20200;-56
2021/05/28 09:19:23;;;;;;;3.70;3.10;;;15.30;99.90;;;;;;5095387;28;20169;-61
2021/05/28 09:22:09;;;;;;;4.73;3.10;;;15.50;99.90;;;;;;5095098;28;20265;-60
2021/05/28 09:24:40;;;;;;;3.73;3.40;;;15.50;99.90;;;;;;5092713;28;20182;-55
2021/05/28 09:27:23;;;;;;;4.80;3.60;;;15.50;99.90;;;;;;5096054;28;20689;-61
2021/05/28 09:30:06;;;;;;;4.63;3.07;;;15.50;99.90;;;;;;5094955;28;20593;-55
2021/05/28 09:32:34;;;;;;;4.37;3.10;;;15.30;99.90;;;;;;5094926;28;20201;-58
2021/05/28 09:35:00;;;;;;;3.40;2.90;;;15.40;99.90;;;;;;5095543;28;20165;-59
2021/05/28 09:37:51;;;;;;;3.80;3.40;;;15.50;99.90;;;;;;5094844;28;20186;-61
2021/05/28 09:40:18;;;;;;;3.83;3.43;;;15.70;99.90;;;;;;5094028;28;20277;-57
2021/05/28 09:42:58;;;;;;;4.03;3.63;;;15.80;99.90;;;;;;5095432;28;20181;-59
2021/05/28 09:45:29;;;;;;;3.30;3.00;;;15.70;99.90;;;;;;5095808;28;20173;-56
2021/05/28 09:47:56;;;;;;;3.77;3.40;;;15.70;99.90;;;;;;5095351;28;20268;-62
2021/05/28 09:50:22;;;;;;;3.20;2.90;;;16.00;99.90;;;;;;5094857;28;20182;-61
2021/05/28 09:52:49;;;;;;;3.00;2.80;;;16.20;99.90;;;;;;5094867;28;20171;-54
2021/05/28 09:55:15;;;;;;;3.23;2.80;;;16.30;99.90;;;;;;5095193;28;20179;-59
2021/05/28 09:57:52;;;;;;;3.30;3.00;;;16.50;99.90;;;;;;5095086;28;20243;-54
2021/05/28 10:00:28;;;;;;;3.37;3.07;;;16.60;99.90;;;;;;5094869;28;20631;-61
2021/05/28 10:03:15;;;;;;;4.40;3.10;;;16.70;99.90;;;;;;5094685;28;20167;-61
2021/05/28 10:05:44;;;;;;;3.10;2.90;;;16.90;99.90;;;;;;5095003;28;20224;-62
2021/05/28 10:08:11;;;;;;;3.23;2.93;;;16.80;99.90;;;;;;5094473;28;20195;-52
2021/05/28 10:10:39;;;;;;;2.90;2.70;;;16.70;99.90;;;;;;5095120;28;20204;-61
2021/05/28 10:13:10;;;;;;;3.23;2.23;;;16.70;99.90;;;;;;5095001;28;20175;-60
2021/05/28 10:15:44;;;;;;;2.87;2.63;;;16.80;99.90;;;;;;5091915;28;20194;-61
2021/05/28 10:18:10;;;;;;;4.30;2.70;;;16.70;99.90;;;;;;5093632;28;20212;-62
2021/05/28 10:20:38;;;;;;;2.33;1.90;;;16.60;99.90;;;;;;5093551;28;20241;-57
2021/05/28 10:23:06;;;;;;;2.43;2.00;;;16.60;99.90;;;;;;5094613;28;20289;-62
2021/05/28 10:25:33;;;;;;;2.33;2.10;;;16.80;99.90;;;;;;5093816;28;20189;-61
2021/05/28 10:28:00;;;;;;;2.50;2.30;;;16.90;99.90;;;;;;5094880;28;20259;-61
2021/05/28 10:30:34;;;;;;;4.97;2.57;;;16.90;99.90;;;;;;5094637;28;20168;-57
2021/05/28 10:33:23;;;;;;;2.53;2.30;;;16.80;99.90;;;;;;5093720;28;20258;-61
2021/05/28 10:35:51;;;;;;;3.23;2.57;;;16.70;99.90;;;;;;5094671;28;20202;-53
2021/05/28 10:38:36;;;;;;;1.90;1.70;;;16.70;99.90;;;;;;5094402;28;20186;-57
2021/05/28 10:41:04;;;;;;;2.30;2.10;;;16.70;99.90;;;;;;5093602;28;20658;-53
2021/05/28 10:43:33;;;;;;;2.90;2.60;;;16.40;99.90;;;;;;5092199;28;20285;-58
2021/05/28 10:46:02;;;;;;;2.67;1.80;;;16.20;99.90;;;;;;5094643;28;20184;-63
2021/05/28 10:48:40;;;;;;;2.57;2.37;;;16.30;99.90;;;;;;5093619;28;20977;-62
2021/05/28 10:51:29;;;;;;;3.37;2.30;;;16.30;99.90;;;;;;5093705;28;20595;-57
2021/05/28 10:53:55;;;;;;;3.33;2.53;;;16.40;99.90;;;;;;5083518;28;20194;-61
2021/05/28 10:56:23;;;;;;;2.97;2.10;;;16.40;99.90;;;;;;5094211;28;20557;-61
2021/05/28 10:58:57;;;;;;;2.40;2.10;;;16.40;99.90;;;;;;5094094;28;20199;-54
2021/05/28 11:01:34;;;;;;;2.50;2.30;;;16.50;99.90;;;;;;5092224;28;20606;-55
2021/05/28 11:04:05;;;;;;;2.63;2.00;;;16.40;99.90;;;;;;5084580;28;20666;-60
2021/05/28 11:06:32;;;;;;;2.43;2.10;;;16.30;99.90;;;;;;5074177;28;20525;-56
2021/05/28 11:09:05;;;;;;;2.00;1.90;;;16.40;99.90;;;;;;5089419;28;20280;-59
2021/05/28 11:11:40;;;;;;;2.70;2.50;;;16.50;99.90;;;;;;5093968;28;20282;-60
2021/05/28 11:14:08;;;;;;;2.40;2.20;;;16.50;99.90;;;;;;5093214;28;20196;-53
2021/05/28 11:16:49;;;;;;;2.40;2.20;;;16.40;99.90;;;;;;5094681;28;20191;-61
2021/05/28 11:19:51;;;;;;;2.10;1.97;;;16.30;99.90;;;;;;5094414;28;20240;-62
2021/05/28 11:22:38;;;;;;;2.80;2.57;;;16.40;99.90;;;;;;5074355;28;20506;-62
2021/05/28 11:25:17;;;;;;;3.00;2.70;;;16.20;99.90;;;;;;5074157;28;20198;-61
2021/05/28 11:27:46;;;;;;;3.27;2.90;;;16.10;99.90;;;;;;5073849;28;20202;-61
2021/05/28 11:30:12;;;;;;;2.70;2.50;;;16.10;99.90;;;;;;5074493;28;20182;-61
2021/05/28 11:32:42;;;;;;;3.03;2.07;;;16.40;99.90;;;;;;5072253;28;20220;-54
2021/05/28 11:35:20;;;;;;;2.50;2.30;;;16.70;99.90;;;;;;5073876;28;20206;-56
2021/05/28 11:37:58;;;;;;;2.40;2.20;;;17.00;99.90;;;;;;5090255;28;20623;-57
2021/05/28 11:40:30;;;;;;;2.43;2.23;;;17.40;99.90;;;;;;5093766;28;20193;-61
2021/05/28 11:43:17;;;;;;;2.53;2.10;;;17.50;99.90;;;;;;5092315;28;20218;-57
2021/05/28 11:45:50;;;;;;;2.43;2.23;;;17.60;99.90;;;;;;5092867;28;20154;-54
2021/05/28 11:48:20;;;;;;;2.10;1.90;;;17.80;99.90;;;;;;5090919;28;20178;-52
2021/05/28 11:50:53;;;;;;;2.17;1.97;;;17.80;99.90;;;;;;5092534;28;20206;-55
2021/05/28 11:53:19;;;;;;;2.20;1.83;;;17.80;99.90;;;;;;5094185;28;20656;-52
2021/05/28 11:55:55;;;;;;;2.17;1.97;;;18.60;99.90;;;;;;5096608;28;20235;-60
2021/05/28 11:58:23;;;;;;;2.10;2.00;;;17.90;99.90;;;;;;5096768;28;20170;-58
2021/05/28 12:00:51;;;;;;;3.03;1.97;;;17.70;99.90;;;;;;5094194;28;20174;-62
2021/05/28 12:03:18;;;;;;;2.37;2.10;;;17.90;99.90;;;;;;5093546;28;20680;-62
2021/05/28 12:05:45;;;;;;;3.07;1.90;;;17.90;99.90;;;;;;5093974;28;20181;-56
2021/05/28 12:08:11;;;;;;;15.40;2.40;;;17.80;99.90;;;;;;5094521;28;20240;-61
2021/05/28 12:10:43;;;;;;;3.40;2.00;;;17.80;99.90;;;;;;5095244;28;20669;-58
2021/05/28 12:13:16;;;;;;;2.40;2.20;;;18.10;99.90;;;;;;5093882;28;20193;-62
2021/05/28 12:15:48;;;;;;;2.30;2.10;;;18.40;99.90;;;;;;5095091;28;20182;-59
2021/05/28 12:18:20;;;;;;;2.10;2.00;;;18.80;99.90;;;;;;5094906;28;20251;-55
2021/05/28 12:20:53;;;;;;;2.63;2.40;;;18.90;99.90;;;;;;5098196;28;20174;-52
2021/05/28 12:23:26;;;;;;;1.90;1.80;;;18.50;99.90;;;;;;5096196;28;20182;-56
2021/05/28 12:26:23;;;;;;;2.67;2.10;;;18.30;99.90;;;;;;5096297;28;20169;-61
2021/05/28 12:28:54;;;;;;;2.40;2.17;;;17.90;99.90;;;;;;5084269;28;20306;-55
2021/05/28 12:31:41;;;;;;;2.17;1.97;;;17.60;99.90;;;;;;5096059;28;20193;-60
2021/05/28 12:34:11;;;;;;;2.40;2.20;;;17.40;99.90;;;;;;5096767;28;20178;-55
2021/05/28 12:36:46;;;;;;;2.27;2.10;;;17.40;99.90;;;;;;5096989;28;20198;-62
2021/05/28 12:39:18;;;;;;;2.87;2.40;;;17.40;99.90;;;;;;5096349;28;20188;-51
2021/05/28 12:41:45;;;;;;;2.60;2.00;;;17.50;99.90;;;;;;5096314;28;20629;-61
2021/05/28 12:44:20;;;;;;;2.90;2.40;;;17.60;99.90;;;;;;5096955;28;20170;-60
2021/05/28 12:46:55;;;;;;;3.20;2.20;;;17.40;99.90;;;;;;5096495;28;20192;-51
2021/05/28 12:49:28;;;;;;;3.10;2.20;;;17.50;99.90;;;;;;5096775;28;20172;-62
2021/05/28 12:51:54;;;;;;;2.30;2.10;;;17.80;99.90;;;;;;5096164;28;20289;-56
2021/05/28 12:54:23;;;;;;;3.03;2.30;;;18.00;99.90;;;;;;5096144;28;20205;-63